Главная страница
METAR-TAF:

METAR-TAF

Аэропорты :

Куньмин, Китай

Куньмин Чаншуй

широта: 25-01N, долгота: 102-41E, высота над уровнем моря: 1892 м

Текущие метеонаблюдения

Эта сводка был подготовлена 56 минут назад, в 03:00 UTC
Ветер 19 Узел от юго-западный
Температура 11°C
Влажность 58%
Давление 1015 hPa
Видимость 10 км и более
Нет облачности ниже 1500 м, и нет кучево-дождевой облачности

METAR: ZPPP 240300Z 22010MPS CAVOK 11/03 Q1015 NOSIG

Время: 11:56 (03:56 UTC)

Прогноз

Эта сводка был подготовлена 8 часа и 45 минут назад, в 19:11 UTC
Прогноз действительный с 24-го 00 UTC до 24-го 24 UTC
Ветер 12 Узел от юго-западный
Видимость 10 км и более
небольшая облачность на высоте 2600 фута
изменения
С 24-го 02 UTC до 24-го 03 UTC
Ветер 19 Узел от юго-западный с порывами до 29 Узел
изменения
С 24-го 13 UTC до 24-го 14 UTC
Ветер 10 Узел от юго-западный

TAF: ZPPP 231911Z 2400/2424 22006MPS 9999 FEW026 TX18/2408Z TN03/2423Z BECMG 2402/2403 22010G15MPS BECMG 2413/2414 22005MPS

Метеонаблюдения и прогнозы для более 4000 аэропортов (сводки METAR и TAF).

Имеющиеся станции представлены на карте желтыми и красными точками.

Чтобы увидеть название станции, наведите на нее мышь.

Затем щелкните, чтобы увидеть метеонаблюдения и метеопрогнозы.

Управление картой: чтобы увеличить масштаб, щелкните зеленые кнопки с черным крестиком; чтобы уменьшить масштаб, щелкните зеленую кнопку с тире; для просмотра соседних карт щелкайте зеленые стрелки.


METAR-TAF: